Time;durP1;ratioP1;P1;durP2;ratioP2;P2;SDS_P1;SDS_P2;PMS_P1;PMS_P2;Temp;Humidity;BMP_temperature;BMP_pressure;BME280_temperature;BME280_humidity;BME280_pressure;Samples;Min_cycle;Max_cycle;Signal;HPM_P1;HPM_P2
2023/06/17 00:00:19;;;;;;;0.90;0.90;;;;;;;18.84;87.84;94345.81;5009616;28;20208;-67
2023/06/17 00:02:46;;;;;;;0.98;0.98;;;;;;;18.67;88.45;94345.34;5009655;28;20208;-66
2023/06/17 00:05:12;;;;;;;0.80;0.80;;;;;;;18.73;88.42;94344.06;5009676;28;20254;-69
2023/06/17 00:07:41;;;;;;;0.98;0.98;;;;;;;18.75;88.25;94339.63;5009369;28;20728;-67
2023/06/17 00:10:08;;;;;;;1.73;1.10;;;;;;;18.86;87.47;94339.59;5009474;28;20562;-66
2023/06/17 00:12:36;;;;;;;1.30;1.10;;;;;;;18.92;86.94;94328.84;5009830;28;20701;-65
2023/06/17 00:15:05;;;;;;;1.00;1.00;;;;;;;19.01;86.32;94335.03;5009972;28;20204;-68
2023/06/17 00:17:34;;;;;;;1.00;1.00;;;;;;;19.01;86.08;94330.72;5010202;28;20708;-69
2023/06/17 00:20:07;;;;;;;1.20;1.20;;;;;;;18.96;86.36;94330.25;5009379;28;20638;-67
2023/06/17 00:22:35;;;;;;;1.10;1.10;;;;;;;18.92;86.20;94323.69;5009545;28;20246;-69
2023/06/17 00:25:02;;;;;;;1.25;1.25;;;;;;;18.89;86.69;94334.22;5007761;28;20664;-68
2023/06/17 00:27:28;;;;;;;1.20;1.20;;;;;;;18.87;86.68;94330.94;5003566;28;20263;-67
2023/06/17 00:29:59;;;;;;;1.38;1.38;;;;;;;18.82;86.71;94327.91;5009099;28;20208;-65
2023/06/17 00:32:26;;;;;;;1.38;1.38;;;;;;;18.82;86.57;94329.66;5001002;28;20654;-67
2023/06/17 00:34:54;;;;;;;2.15;1.70;;;;;;;18.72;87.48;94316.69;5008632;28;20255;-67
2023/06/17 00:37:21;;;;;;;1.63;1.52;;;;;;;18.66;87.59;94322.31;5009339;28;20258;-70
2023/06/17 00:39:48;;;;;;;1.33;1.33;;;;;;;18.58;88.11;94319.47;5009263;28;20204;-66
2023/06/17 00:42:15;;;;;;;2.28;1.80;;;;;;;18.71;87.55;94325.34;5002298;28;20625;-68
2023/06/17 00:44:42;;;;;;;1.80;1.70;;;;;;;18.66;87.96;94323.13;5011282;28;20204;-66
2023/06/17 00:47:10;;;;;;;1.55;1.55;;;;;;;18.57;88.36;94322.97;5013733;28;20205;-67
2023/06/17 00:49:39;;;;;;;1.67;1.67;;;;;;;18.73;87.25;94323.50;5011564;28;20267;-69
2023/06/17 00:52:09;;;;;;;1.40;1.40;;;;;;;18.75;87.23;94326.75;5011793;28;20232;-67
2023/06/17 00:54:37;;;;;;;2.35;1.60;;;;;;;18.76;86.94;94323.25;5010536;28;20323;-66
2023/06/17 00:57:07;;;;;;;1.90;1.90;;;;;;;18.77;87.10;94322.31;5011590;28;20200;-68
2023/06/17 00:59:37;;;;;;;1.52;1.52;;;;;;;18.70;87.35;94318.56;5011072;28;20204;-67
2023/06/17 01:02:03;;;;;;;1.70;1.70;;;;;;;18.74;87.18;94314.84;5011266;28;20255;-68
2023/06/17 01:04:31;;;;;;;1.60;1.55;;;;;;;18.82;86.84;94315.03;5010605;28;20200;-67
2023/06/17 01:07:09;;;;;;;1.52;1.42;;;;;;;18.76;86.87;94307.00;5012678;28;20679;-65
2023/06/17 01:09:43;;;;;;;3.70;1.20;;;;;;;18.76;87.14;94307.00;5012597;28;20235;-68
2023/06/17 01:12:13;;;;;;;1.77;1.67;;;;;;;18.74;87.35;94306.28;5001172;28;20204;-66
2023/06/17 01:14:42;;;;;;;1.77;1.70;;;;;;;18.68;86.95;94299.84;5012610;28;20223;-66
2023/06/17 01:17:12;;;;;;;1.60;1.60;;;;;;;18.69;87.58;94304.88;5012571;28;20196;-65
2023/06/17 01:19:40;;;;;;;1.70;1.70;;;;;;;18.69;87.54;94306.63;5011947;28;20201;-66
2023/06/17 01:22:09;;;;;;;1.83;1.50;;;;;;;18.66;87.86;94307.69;5012108;28;20271;-68
2023/06/17 01:24:38;;;;;;;3.00;1.70;;;;;;;18.65;87.67;94302.66;5012017;28;20574;-67
2023/06/17 01:27:06;;;;;;;2.00;1.80;;;;;;;18.70;87.80;94310.84;5013015;28;20291;-67
2023/06/17 01:29:33;;;;;;;2.00;1.90;;;;;;;18.64;87.99;94312.13;5011865;28;20235;-70
2023/06/17 01:32:01;;;;;;;1.65;1.55;;;;;;;18.47;88.57;94311.75;5012242;28;20200;-65
2023/06/17 01:34:35;;;;;;;2.60;2.05;;;;;;;18.52;88.53;94304.53;5011809;28;20740;-66
2023/06/17 01:37:06;;;;;;;3.60;1.95;;;;;;;18.40;88.78;94308.00;5010140;28;20200;-64
2023/06/17 01:39:34;;;;;;;2.25;2.05;;;;;;;18.25;89.97;94305.69;5011524;28;20204;-66
2023/06/17 01:42:03;;;;;;;1.58;1.58;;;;;;;18.27;89.84;94303.81;5012295;28;20674;-66
2023/06/17 01:44:31;;;;;;;2.22;1.77;;;;;;;18.26;89.55;94301.34;5011758;28;20259;-64
2023/06/17 01:46:58;;;;;;;1.88;1.77;;;;;;;18.23;89.97;94310.13;5012197;28;20262;-67
2023/06/17 01:49:25;;;;;;;1.70;1.60;;;;;;;18.13;91.06;94304.03;5011990;28;20262;-66
2023/06/17 01:51:52;;;;;;;2.00;1.90;;;;;;;18.14;91.15;94304.84;5012931;28;20262;-64
2023/06/17 01:54:18;;;;;;;2.10;2.00;;;;;;;18.09;91.48;94307.75;5013090;28;20752;-65
2023/06/17 01:56:45;;;;;;;2.10;2.00;;;;;;;18.09;91.45;94307.75;5012183;28;20689;-65
2023/06/17 01:59:13;;;;;;;2.10;2.00;;;;;;;18.06;91.52;94302.88;5012175;28;20570;-65
2023/06/17 02:01:40;;;;;;;2.10;2.00;;;;;;;17.96;92.32;94296.75;5011229;28;20232;-66
2023/06/17 02:04:06;;;;;;;1.50;1.50;;;;;;;17.91;93.00;94293.69;5011512;28;20588;-64
2023/06/17 02:06:33;;;;;;;2.20;2.10;;;;;;;17.93;92.65;94291.84;5011127;28;20658;-64
2023/06/17 02:09:00;;;;;;;1.90;1.80;;;;;;;17.82;93.25;94297.75;5010820;28;20601;-67
2023/06/17 02:11:27;;;;;;;1.83;1.73;;;;;;;17.78;94.20;94293.00;5012246;28;20200;-63
2023/06/17 02:13:53;;;;;;;2.00;1.90;;;;;;;17.79;94.81;94289.47;5014353;28;20224;-62
2023/06/17 02:16:21;;;;;;;1.98;1.88;;;;;;;17.87;93.40;94297.44;5013246;28;20711;-64
2023/06/17 02:18:48;;;;;;;3.20;1.80;;;;;;;17.87;93.38;94300.81;5014076;28;20208;-63
2023/06/17 02:21:15;;;;;;;1.85;1.75;;;;;;;17.79;93.65;94298.00;5011802;28;20717;-62
2023/06/17 02:23:42;;;;;;;2.13;2.03;;;;;;;17.80;94.25;94293.69;5012368;28;20211;-65
2023/06/17 02:26:08;;;;;;;1.80;1.70;;;;;;;17.77;94.68;94292.16;5010015;28;20221;-63
2023/06/17 02:28:35;;;;;;;1.65;1.65;;;;;;;17.75;94.74;94303.50;5010823;28;20235;-65
2023/06/17 02:31:02;;;;;;;1.77;1.70;;;;;;;17.79;94.44;94310.88;5010952;28;20687;-65
2023/06/17 02:33:33;;;;;;;1.88;1.85;;;;;;;17.67;95.41;94304.84;5010003;28;20287;-66
2023/06/17 02:36:00;;;;;;;1.70;1.60;;;;;;;17.73;95.28;94295.06;5010475;28;20219;-65
2023/06/17 02:38:28;;;;;;;1.67;1.58;;;;;;;17.74;94.58;94301.84;5009947;28;20201;-67
2023/06/17 02:40:54;;;;;;;1.42;1.42;;;;;;;17.71;95.05;94296.94;5011253;28;20208;-64
2023/06/17 02:43:22;;;;;;;1.58;1.58;;;;;;;17.73;94.64;94295.06;5011691;28;20219;-65
2023/06/17 02:45:48;;;;;;;1.27;1.27;;;;;;;17.79;93.82;94302.34;5009579;28;20329;-65
2023/06/17 02:48:15;;;;;;;2.92;1.52;;;;;;;17.93;94.00;94302.94;5009311;28;20737;-66
2023/06/17 02:50:43;;;;;;;1.50;1.50;;;;;;;17.93;94.42;94307.25;5008907;28;20339;-65
2023/06/17 02:53:10;;;;;;;1.60;1.55;;;;;;;17.94;93.57;94311.47;5008794;28;20275;-65
2023/06/17 02:55:37;;;;;;;1.50;1.23;;;;;;;18.03;93.47;94310.81;5008801;28;20628;-66
2023/06/17 02:58:03;;;;;;;1.10;1.10;;;;;;;17.97;93.86;94313.81;5009467;28;20204;-66
2023/06/17 03:00:30;;;;;;;1.60;1.60;;;;;;;17.95;93.74;94307.97;5009725;28;20647;-65
2023/06/17 03:02:57;;;;;;;1.75;1.65;;;;;;;17.88;93.87;94311.91;5010841;28;20291;-65
2023/06/17 03:05:24;;;;;;;1.60;1.50;;;;;;;17.99;93.29;94306.81;5010880;28;20204;-64
2023/06/17 03:07:53;;;;;;;3.22;1.77;;;;;;;18.00;93.07;94309.28;5011177;28;20200;-65
2023/06/17 03:10:19;;;;;;;2.45;1.65;;;;;;;17.97;93.70;94318.97;5011426;28;20192;-67
2023/06/17 03:12:46;;;;;;;1.70;1.60;;;;;;;18.03;93.24;94318.50;5011368;28;20242;-66
2023/06/17 03:15:17;;;;;;;1.42;1.33;;;;;;;18.02;93.29;94327.16;5010539;28;20698;-64
2023/06/17 03:17:44;;;;;;;1.55;1.50;;;;;;;18.15;92.30;94327.88;5010846;28;20638;-64
2023/06/17 03:20:11;;;;;;;1.75;1.42;;;;;;;18.21;91.73;94327.41;5010286;28;20719;-65
2023/06/17 03:22:37;;;;;;;1.90;1.63;;;;;;;18.21;91.94;94327.41;5010493;28;20243;-63
2023/06/17 03:25:07;;;;;;;1.83;1.45;;;;;;;18.22;91.77;94329.06;5011504;28;20286;-64
2023/06/17 03:27:34;;;;;;;2.97;1.80;;;;;;;18.25;91.77;94328.00;5010578;28;20698;-65
2023/06/17 03:30:00;;;;;;;1.55;1.55;;;;;;;18.27;91.54;94321.00;5010838;28;20698;-65
2023/06/17 03:32:27;;;;;;;1.85;1.75;;;;;;;18.32;91.31;94321.44;5010517;28;20207;-65
2023/06/17 03:34:53;;;;;;;1.33;1.27;;;;;;;18.42;90.39;94321.59;5010655;28;20366;-65
2023/06/17 03:37:21;;;;;;;1.60;1.60;;;;;;;18.44;90.33;94322.28;5010548;28;20200;-66
2023/06/17 03:39:47;;;;;;;1.60;1.60;;;;;;;18.45;90.16;94326.50;5010146;28;20640;-64
2023/06/17 03:42:16;;;;;;;1.48;1.48;;;;;;;18.34;91.31;94329.88;5010523;28;20204;-64
2023/06/17 03:44:43;;;;;;;1.55;1.55;;;;;;;18.25;91.18;94333.97;5010744;28;20287;-65
2023/06/17 03:47:10;;;;;;;1.65;1.52;;;;;;;18.29;90.83;94335.38;5010323;28;20258;-65
2023/06/17 03:49:37;;;;;;;1.35;1.30;;;;;;;18.19;91.60;94338.75;5010309;28;20299;-65
2023/06/17 03:52:04;;;;;;;1.17;1.17;;;;;;;18.25;91.36;94343.44;5010435;28;20229;-66
2023/06/17 03:54:32;;;;;;;1.30;1.30;;;;;;;18.13;91.68;94347.72;5006671;28;20255;-65
2023/06/17 03:56:59;;;;;;;3.83;1.20;;;;;;;18.10;92.35;94334.28;5010435;28;20200;-66
2023/06/17 03:59:27;;;;;;;1.30;1.20;;;;;;;18.12;92.17;94342.69;5010394;28;20212;-65
2023/06/17 04:01:54;;;;;;;1.40;1.40;;;;;;;18.25;91.48;94349.41;5009540;28;20686;-65
2023/06/17 04:04:20;;;;;;;1.20;1.20;;;;;;;18.19;91.34;94352.44;5009683;28;20252;-66
2023/06/17 04:06:47;;;;;;;1.75;1.35;;;;;;;18.21;91.31;94353.13;5010485;28;20204;-65
2023/06/17 04:09:14;;;;;;;1.40;1.40;;;;;;;18.16;91.46;94360.38;5010396;28;20290;-64
2023/06/17 04:11:41;;;;;;;1.10;1.10;;;;;;;18.16;91.14;94355.22;5009978;28;20204;-65
2023/06/17 04:14:07;;;;;;;9.15;1.60;;;;;;;18.10;91.55;94354.84;5010524;28;20231;-65
2023/06/17 04:16:36;;;;;;;1.50;1.50;;;;;;;18.09;91.40;94364.31;5010156;28;20250;-66
2023/06/17 04:19:02;;;;;;;1.50;1.40;;;;;;;18.00;92.13;94370.16;5011721;28;20266;-65
2023/06/17 04:21:29;;;;;;;2.00;1.90;;;;;;;17.89;92.98;94364.97;5013912;28;20235;-64
2023/06/17 04:23:56;;;;;;;2.20;1.40;;;;;;;17.80;93.87;94363.91;5014251;28;20689;-64
2023/06/17 04:26:22;;;;;;;2.25;1.83;;;;;;;17.80;94.08;94371.63;5011735;28;20196;-63
2023/06/17 04:28:49;;;;;;;1.33;1.33;;;;;;;17.69;95.07;94371.56;5013116;28;20664;-64
2023/06/17 04:31:16;;;;;;;1.83;1.58;;;;;;;17.78;95.21;94375.22;5014056;28;20240;-64
2023/06/17 04:33:44;;;;;;;5.70;1.50;;;;;;;17.71;95.13;94372.28;5012426;28;20212;-65
2023/06/17 04:36:11;;;;;;;2.03;1.10;;;;;;;17.75;94.52;94380.59;5013989;28;20283;-65
2023/06/17 04:38:38;;;;;;;1.33;1.33;;;;;;;17.64;95.55;94377.03;5014196;28;20232;-65
2023/06/17 04:41:05;;;;;;;2.15;1.33;;;;;;;17.57;96.28;94383.50;5013646;28;20204;-65
2023/06/17 04:43:33;;;;;;;1.00;1.00;;;;;;;17.54;96.79;94382.91;5011649;28;20208;-67
2023/06/17 04:46:01;;;;;;;2.10;1.85;;;;;;;17.50;96.23;94386.63;5013895;28;20574;-65
2023/06/17 04:48:29;;;;;;;1.55;1.45;;;;;;;17.49;96.44;94390.13;5012464;28;20200;-68
2023/06/17 04:50:57;;;;;;;1.92;1.55;;;;;;;17.46;96.47;94383.44;5011610;28;20227;-69
2023/06/17 04:53:24;;;;;;;1.30;1.25;;;;;;;17.47;96.59;94382.53;5011634;28;20196;-65
2023/06/17 04:55:51;;;;;;;1.08;1.08;;;;;;;17.41;97.31;94382.94;5011597;28;20224;-67
2023/06/17 04:58:18;;;;;;;0.82;0.82;;;;;;;17.57;96.76;94377.56;5011765;28;20207;-67
2023/06/17 05:00:45;;;;;;;0.80;0.80;;;;;;;17.54;96.88;94381.16;5011515;28;20721;-64
2023/06/17 05:03:11;;;;;;;1.30;0.95;;;;;;;17.70;96.06;94382.66;5012954;28;20201;-63
2023/06/17 05:05:38;;;;;;;0.80;0.80;;;;;;;17.61;96.11;94387.47;5013560;28;20200;-63
2023/06/17 05:08:06;;;;;;;0.95;0.80;;;;;;;17.70;95.58;94390.38;5013245;28;20201;-64
2023/06/17 05:10:33;;;;;;;1.20;1.10;;;;;;;17.60;96.14;94385.84;5013598;28;20204;-65
2023/06/17 05:13:00;;;;;;;0.98;0.90;;;;;;;17.72;95.90;94393.66;5012630;28;20682;-62
2023/06/17 05:15:27;;;;;;;0.98;0.98;;;;;;;17.79;95.85;94390.53;5013378;28;20256;-66
2023/06/17 05:17:53;;;;;;;0.88;0.88;;;;;;;17.94;94.51;94388.59;5012626;28;20706;-65
2023/06/17 05:20:20;;;;;;;2.08;1.00;;;;;;;17.98;94.19;94390.00;5012616;28;20620;-65
2023/06/17 05:22:47;;;;;;;1.17;1.17;;;;;;;17.96;94.60;94394.44;5010156;28;20260;-66
2023/06/17 05:25:15;;;;;;;1.08;1.08;;;;;;;18.08;93.45;94390.97;5013309;28;20208;-65
2023/06/17 05:27:42;;;;;;;0.80;0.80;;;;;;;18.10;92.83;94386.53;5012667;28;20224;-65
2023/06/17 05:30:09;;;;;;;1.02;1.02;;;;;;;18.13;92.74;94391.44;5012590;28;20694;-64
2023/06/17 05:32:36;;;;;;;0.80;0.80;;;;;;;18.11;93.06;94398.44;5012237;28;20303;-65
2023/06/17 05:35:03;;;;;;;0.80;0.80;;;;;;;18.17;92.52;94403.16;5013125;28;20228;-64
2023/06/17 05:37:31;;;;;;;1.98;0.73;;;;;;;18.22;91.83;94411.34;5012532;28;20294;-66
2023/06/17 05:39:58;;;;;;;0.88;0.82;;;;;;;18.31;91.19;94408.06;5012770;28;20211;-66
2023/06/17 05:42:26;;;;;;;0.63;0.63;;;;;;;18.32;91.06;94404.56;5012541;28;20208;-64
2023/06/17 05:44:53;;;;;;;0.93;0.93;;;;;;;18.34;90.77;94402.72;5012623;28;20236;-65
2023/06/17 05:47:19;;;;;;;0.88;0.63;;;;;;;18.36;90.62;94400.03;5012330;28;20212;-66
2023/06/17 05:49:46;;;;;;;0.68;0.68;;;;;;;18.43;90.51;94397.81;5012436;28;20682;-67
2023/06/17 05:52:12;;;;;;;0.80;0.80;;;;;;;18.34;90.93;94397.56;5012138;28;20287;-65
2023/06/17 05:54:39;;;;;;;0.90;0.90;;;;;;;18.42;90.53;94397.00;5012822;28;20200;-65
2023/06/17 05:57:06;;;;;;;0.93;0.82;;;;;;;18.42;90.92;94397.00;5011939;28;20204;-64
2023/06/17 05:59:34;;;;;;;1.08;1.08;;;;;;;18.27;91.20;94398.97;5012558;28;20205;-69
2023/06/17 06:02:01;;;;;;;2.92;0.85;;;;;;;18.30;91.50;94398.75;5012179;28;20207;-64
2023/06/17 06:04:28;;;;;;;0.80;0.80;;;;;;;18.28;91.82;94392.91;5009893;28;20670;-65
2023/06/17 06:06:55;;;;;;;2.05;1.00;;;;;;;18.28;91.82;94395.47;5012331;28;20200;-65
2023/06/17 06:09:21;;;;;;;2.72;0.98;;;;;;;18.33;91.23;94388.22;5012723;28;20635;-65
2023/06/17 06:11:48;;;;;;;0.80;0.80;;;;;;;18.38;91.01;94389.63;5011984;28;20226;-66
2023/06/17 06:14:15;;;;;;;2.03;0.93;;;;;;;18.43;90.70;94392.69;5012244;28;20236;-65
2023/06/17 06:16:43;;;;;;;1.15;1.10;;;;;;;18.57;90.13;94395.03;5010469;28;20696;-65
2023/06/17 06:19:10;;;;;;;5.78;5.28;;;;;;;18.64;89.91;94396.25;5011784;28;20204;-66
2023/06/17 06:21:36;;;;;;;3.08;2.78;;;;;;;18.56;90.26;94398.56;5011801;28;20286;-66
2023/06/17 06:24:03;;;;;;;7.20;6.57;;;;;;;18.53;90.51;94394.47;5012343;28;20204;-65
2023/06/17 06:26:30;;;;;;;1.80;1.70;;;;;;;18.54;91.08;94401.25;5010786;28;20196;-65
2023/06/17 06:28:57;;;;;;;0.85;0.80;;;;;;;18.56;90.82;94408.84;5011713;28;20205;-62
2023/06/17 06:31:23;;;;;;;1.20;1.10;;;;;;;18.63;90.23;94410.03;5016714;28;20768;-66
2023/06/17 06:33:51;;;;;;;1.30;0.90;;;;;;;18.72;89.95;94411.94;5013720;28;20232;-65
2023/06/17 06:36:18;;;;;;;15.45;13.02;;;;;;;18.71;89.56;94418.00;5015170;28;20224;-64
2023/06/17 06:38:44;;;;;;;7.95;7.20;;;;;;;18.74;89.53;94414.41;5012174;28;20243;-67
2023/06/17 06:41:11;;;;;;;10.30;8.38;;;;;;;18.75;89.55;94419.44;5011416;28;20205;-67
2023/06/17 06:43:38;;;;;;;13.00;10.90;;;;;;;18.83;89.78;94422.22;5011725;28;20353;-67
2023/06/17 06:46:04;;;;;;;16.77;13.30;;;;;;;18.94;88.84;94424.00;5010851;28;20246;-61
2023/06/17 06:48:31;;;;;;;2.83;2.63;;;;;;;19.02;88.30;94417.31;5010228;28;20209;-67
2023/06/17 06:51:01;;;;;;;1.65;1.55;;;;;;;19.07;87.85;94418.69;5010268;28;20608;-62
2023/06/17 06:53:28;;;;;;;4.22;3.80;;;;;;;19.09;88.08;94416.84;5016954;28;20231;-66
2023/06/17 06:55:54;;;;;;;7.15;6.55;;;;;;;19.06;88.09;94423.03;5013024;28;20263;-63
2023/06/17 06:58:21;;;;;;;4.32;4.03;;;;;;;19.19;88.20;94422.94;5013749;28;20210;-67
2023/06/17 07:00:48;;;;;;;2.35;2.10;;;;;;;19.43;86.70;94415.84;5011058;28;20208;-66
2023/06/17 07:03:14;;;;;;;1.90;1.80;;;;;;;19.61;85.58;94414.44;5011637;28;20200;-64
2023/06/17 07:05:41;;;;;;;1.45;1.35;;;;;;;19.78;85.02;94415.69;5011535;28;20258;-66
2023/06/17 07:08:09;;;;;;;1.50;1.40;;;;;;;19.95;84.50;94414.34;5010599;28;20204;-66
2023/06/17 07:10:39;;;;;;;1.05;1.05;;;;;;;20.10;83.60;94413.09;5003416;28;20200;-66
2023/06/17 07:13:05;;;;;;;1.10;1.10;;;;;;;20.18;83.21;94413.28;5010636;28;20670;-65
2023/06/17 07:15:32;;;;;;;1.10;1.00;;;;;;;20.28;83.10;94413.38;5011196;28;20598;-66
2023/06/17 07:17:59;;;;;;;2.50;0.90;;;;;;;20.45;82.00;94409.44;5010672;28;20287;-65
2023/06/17 07:20:25;;;;;;;1.17;1.05;;;;;;;20.48;81.00;94409.19;5011138;28;20207;-65
2023/06/17 07:22:52;;;;;;;0.80;0.80;;;;;;;20.51;81.29;94414.91;5010433;28;20233;-66
2023/06/17 07:25:20;;;;;;;0.60;0.60;;;;;;;20.58;81.38;94408.28;5010939;28;20196;-64
2023/06/17 07:27:47;;;;;;;1.02;1.02;;;;;;;20.64;80.75;94417.28;5010951;28;20679;-66
2023/06/17 07:30:14;;;;;;;0.80;0.80;;;;;;;20.73;80.37;94413.13;5011021;28;20215;-65
2023/06/17 07:32:41;;;;;;;1.17;0.98;;;;;;;20.77;80.00;94420.47;5010127;28;20204;-67
2023/06/17 07:35:08;;;;;;;0.80;0.80;;;;;;;20.77;80.45;94425.66;5010579;28;20682;-65
2023/06/17 07:37:34;;;;;;;2.55;2.20;;;;;;;20.83;80.83;94414.78;5010005;28;20236;-64
2023/06/17 07:40:04;;;;;;;3.97;3.67;;;;;;;20.82;80.33;94425.25;5010526;28;20282;-65
2023/06/17 07:42:32;;;;;;;2.45;2.25;;;;;;;20.83;80.54;94419.94;5010464;28;20212;-66
2023/06/17 07:44:59;;;;;;;1.55;1.45;;;;;;;20.79;81.59;94423.72;5010256;28;20682;-66
2023/06/17 07:47:26;;;;;;;2.63;1.20;;;;;;;20.66;81.94;94423.13;5010767;28;20199;-67
2023/06/17 07:49:52;;;;;;;2.88;1.38;;;;;;;20.68;81.37;94431.56;5010328;28;20208;-68
2023/06/17 07:52:19;;;;;;;1.00;1.00;;;;;;;20.64;82.03;94425.03;5008976;28;20220;-68
2023/06/17 07:54:47;;;;;;;0.80;0.80;;;;;;;20.50;83.00;94433.09;5010096;28;20239;-66
2023/06/17 07:57:14;;;;;;;1.17;0.95;;;;;;;20.34;83.96;94436.88;5006658;28;20220;-67
2023/06/17 07:59:43;;;;;;;2.90;1.27;;;;;;;20.43;84.04;94426.78;5010217;28;20286;-66
2023/06/17 08:02:10;;;;;;;2.20;2.10;;;;;;;20.63;82.82;94428.53;5009064;28;20263;-65
2023/06/17 08:04:37;;;;;;;4.68;3.63;;;;;;;20.80;82.06;94435.69;5010345;28;20215;-67
2023/06/17 08:07:05;;;;;;;2.95;2.63;;;;;;;20.82;82.44;94441.56;5009736;28;20193;-68
2023/06/17 08:09:32;;;;;;;1.45;1.30;;;;;;;20.68;82.59;94431.56;5010288;28;20570;-65
2023/06/17 08:11:59;;;;;;;2.78;1.40;;;;;;;20.52;83.89;94433.78;5009352;28;20204;-66
2023/06/17 08:14:25;;;;;;;2.90;1.20;;;;;;;20.27;84.87;94437.53;5009988;28;20212;-66
2023/06/17 08:16:53;;;;;;;0.70;0.70;;;;;;;20.09;84.22;94446.75;5009385;28;20220;-66
2023/06/17 08:19:21;;;;;;;1.10;1.10;;;;;;;19.86;85.82;94444.25;5010432;28;20204;-66
2023/06/17 08:21:49;;;;;;;0.73;0.73;;;;;;;19.78;86.11;94445.81;5009104;28;20749;-67
2023/06/17 08:24:21;;;;;;;1.15;1.15;;;;;;;19.66;87.14;94452.75;5008956;28;20207;-65
2023/06/17 08:26:48;;;;;;;1.23;1.23;;;;;;;19.64;87.29;94452.03;5004150;28;20293;-65
2023/06/17 08:29:16;;;;;;;1.42;1.35;;;;;;;19.57;87.51;94443.97;5002931;28;20256;-66
2023/06/17 08:31:44;;;;;;;1.42;1.33;;;;;;;19.59;88.15;94447.25;5007210;28;20204;-69
2023/06/17 08:34:12;;;;;;;1.50;1.40;;;;;;;19.64;87.50;94449.47;5006792;28;20224;-68
2023/06/17 08:36:40;;;;;;;1.60;1.50;;;;;;;19.57;87.74;94449.13;5004902;28;20256;-66
2023/06/17 08:39:07;;;;;;;4.03;1.75;;;;;;;19.53;88.30;94441.78;5003978;28;20607;-65
2023/06/17 08:41:38;;;;;;;2.05;1.88;;;;;;;19.64;88.15;94455.44;5004730;28;20675;-66
2023/06/17 08:44:06;;;;;;;2.58;1.67;;;;;;;19.64;88.25;94449.47;5008780;28;20680;-65
2023/06/17 08:46:34;;;;;;;1.70;1.60;;;;;;;19.75;88.45;94451.22;5008629;28;20524;-66
2023/06/17 08:49:02;;;;;;;2.17;2.08;;;;;;;19.85;88.12;94452.09;5008313;28;20197;-66
2023/06/17 08:51:31;;;;;;;2.00;1.80;;;;;;;19.82;88.68;94457.50;5008130;28;20224;-66
2023/06/17 08:53:58;;;;;;;1.83;1.73;;;;;;;19.68;88.47;94449.09;5007999;28;20224;-65
2023/06/17 08:56:24;;;;;;;1.70;1.60;;;;;;;19.74;88.08;94454.72;5008687;28;20224;-65
2023/06/17 08:58:53;;;;;;;1.98;1.88;;;;;;;19.82;88.77;94453.16;5008386;28;20203;-65
2023/06/17 09:01:21;;;;;;;2.53;2.33;;;;;;;19.83;89.13;94453.97;5009467;28;20282;-65
2023/06/17 09:03:51;;;;;;;1.92;1.83;;;;;;;19.95;88.24;94453.00;5009442;28;20196;-65
2023/06/17 09:06:20;;;;;;;2.00;1.90;;;;;;;19.96;87.94;94449.50;5011721;28;20287;-65
2023/06/17 09:08:50;;;;;;;2.13;1.92;;;;;;;19.93;88.84;94444.59;5002574;28;20212;-67
2023/06/17 09:11:17;;;;;;;1.90;1.80;;;;;;;19.81;89.28;94446.38;5013174;28;20736;-65
2023/06/17 09:13:50;;;;;;;3.92;2.17;;;;;;;19.86;89.42;94453.75;5012509;28;20211;-65
2023/06/17 09:16:17;;;;;;;2.25;2.15;;;;;;;19.83;89.63;94448.81;5011355;28;20233;-65
2023/06/17 09:18:44;;;;;;;2.10;2.00;;;;;;;19.78;89.93;94438.06;5012855;28;20204;-66
2023/06/17 09:21:16;;;;;;;2.40;2.20;;;;;;;19.84;90.24;94445.31;5012506;28;20730;-66
2023/06/17 09:23:43;;;;;;;1.85;1.75;;;;;;;19.90;89.51;94437.09;5012423;28;20311;-65
2023/06/17 09:26:11;;;;;;;2.33;2.22;;;;;;;19.90;90.08;94439.66;5011905;28;20204;-66
2023/06/17 09:28:38;;;;;;;7.82;7.13;;;;;;;20.08;89.10;94438.19;5012742;28;20325;-67
2023/06/17 09:31:05;;;;;;;9.07;8.20;;;;;;;20.24;88.36;94440.34;5012214;28;20219;-66
2023/06/17 09:33:32;;;;;;;9.23;8.38;;;;;;;20.40;87.15;94450.28;5011065;28;20262;-67
2023/06/17 09:36:00;;;;;;;8.95;8.15;;;;;;;20.59;86.33;94440.88;5012390;28;20277;-67
2023/06/17 09:38:27;;;;;;;1.98;1.88;;;;;;;20.91;84.62;94448.53;5011993;28;20236;-67
2023/06/17 09:40:55;;;;;;;2.25;2.15;;;;;;;21.18;83.29;94444.59;5009406;28;20205;-66
2023/06/17 09:43:25;;;;;;;1.60;1.52;;;;;;;21.34;82.57;94444.94;5012885;28;20222;-66
2023/06/17 09:45:59;;;;;;;1.45;1.30;;;;;;;21.47;81.37;94445.53;5011439;28;20287;-66
2023/06/17 09:48:30;;;;;;;1.80;1.70;;;;;;;21.48;81.21;94457.50;5004797;28;20259;-67
2023/06/17 09:50:58;;;;;;;1.38;1.27;;;;;;;21.62;82.03;94454.53;5012107;28;20217;-65
2023/06/17 09:53:27;;;;;;;1.90;1.80;;;;;;;21.73;80.44;94446.69;5010610;28;20293;-64
2023/06/17 09:55:56;;;;;;;1.48;1.40;;;;;;;21.89;79.20;94456.50;5011851;28;20205;-66
2023/06/17 09:58:26;;;;;;;4.78;1.63;;;;;;;22.10;78.69;94450.41;5012253;28;20294;-69
2023/06/17 10:00:53;;;;;;;1.30;1.30;;;;;;;22.40;77.68;94456.28;5012657;28;20204;-65
2023/06/17 10:03:20;;;;;;;1.55;1.50;;;;;;;22.63;76.35;94450.78;5011630;28;20250;-66
2023/06/17 10:05:53;;;;;;;1.52;1.42;;;;;;;22.71;76.19;94443.97;5011975;28;20197;-68
2023/06/17 10:08:21;;;;;;;0.90;0.90;;;;;;;22.68;75.56;94456.38;4937616;28;20224;-68
2023/06/17 10:10:49;;;;;;;1.88;1.40;;;;;;;22.39;76.28;94462.41;4971253;28;20298;-64
2023/06/17 10:13:20;;;;;;;0.90;0.90;;;;;;;22.02;78.19;94466.63;4967851;28;20318;-65
2023/06/17 10:15:51;;;;;;;0.93;0.93;;;;;;;21.57;79.68;94471.41;4969646;28;20211;-64
2023/06/17 10:18:20;;;;;;;4.53;1.67;;;;;;;21.33;80.10;94469.97;4970249;28;20208;-62
2023/06/17 10:20:49;;;;;;;2.45;2.30;;;;;;;21.22;79.90;94448.56;4971242;28;20240;-64
2023/06/17 10:23:18;;;;;;;12.23;10.05;;;;;;;21.29;79.69;94462.59;4970636;28;20829;-61
2023/06/17 10:25:46;;;;;;;4.35;4.05;;;;;;;21.17;80.91;94469.59;4970170;28;20386;-60
2023/06/17 10:28:15;;;;;;;2.65;2.45;;;;;;;21.13;80.24;94477.75;4969755;28;20758;-62
2023/06/17 10:30:44;;;;;;;4.38;1.90;;;;;;;20.97;80.57;94473.06;4969924;28;20208;-61
2023/06/17 10:33:12;;;;;;;2.70;1.98;;;;;;;20.86;80.32;94470.53;4970387;28;20208;-64
2023/06/17 10:35:40;;;;;;;3.75;2.22;;;;;;;20.64;81.64;94477.47;4967731;28;20204;-63
2023/06/17 10:38:09;;;;;;;2.50;2.33;;;;;;;20.42;82.85;94474.19;4969984;28;20228;-66
2023/06/17 10:40:41;;;;;;;2.50;2.40;;;;;;;20.19;83.96;94476.84;4969349;28;20204;-65
2023/06/17 10:43:19;;;;;;;2.78;2.47;;;;;;;20.01;84.59;94478.31;4971846;28;20590;-67
2023/06/17 10:45:50;;;;;;;2.53;2.42;;;;;;;20.05;84.92;94469.38;4969215;28;20219;-65
2023/06/17 10:48:21;;;;;;;3.63;2.85;;;;;;;20.02;85.82;94480.78;4971206;28;20210;-67
2023/06/17 10:50:53;;;;;;;5.28;4.40;;;;;;;19.97;86.48;94476.94;4968203;28;20766;-67
2023/06/17 10:53:26;;;;;;;7.68;3.92;;;;;;;19.88;87.06;94477.66;4970089;28;20662;-67
2023/06/17 10:55:52;;;;;;;3.63;3.40;;;;;;;19.73;87.47;94478.88;4966145;28;20214;-66
2023/06/17 10:58:19;;;;;;;3.45;3.25;;;;;;;19.58;88.39;94486.84;4964106;28;20313;-65
2023/06/17 11:00:46;;;;;;;3.25;2.95;;;;;;;19.41;89.22;94484.72;4966726;28;20215;-66
2023/06/17 11:03:15;;;;;;;3.25;2.70;;;;;;;19.36;89.48;94477.34;4972328;28;20212;-63
2023/06/17 11:05:43;;;;;;;4.20;3.92;;;;;;;19.28;90.01;94472.00;4969478;28;20349;-62
2023/06/17 11:08:11;;;;;;;3.33;3.13;;;;;;;19.45;89.37;94486.13;4977066;28;20200;-63
2023/06/17 11:10:38;;;;;;;4.93;4.05;;;;;;;19.40;90.55;94487.41;4980146;28;20554;-66
2023/06/17 11:13:05;;;;;;;6.65;6.00;;;;;;;19.20;91.71;94486.38;4974159;28;20212;-68
2023/06/17 11:15:31;;;;;;;6.05;5.10;;;;;;;19.14;92.11;94486.84;4971595;28;20294;-67
2023/06/17 11:18:02;;;;;;;5.88;3.80;;;;;;;19.26;92.34;94484.16;4971004;28;20220;-65
2023/06/17 11:20:34;;;;;;;3.85;3.65;;;;;;;19.16;92.13;94496.09;4970859;28;20208;-67
2023/06/17 11:23:03;;;;;;;3.92;3.65;;;;;;;19.17;92.07;94486.63;4963894;28;20231;-65
2023/06/17 11:25:31;;;;;;;3.83;3.53;;;;;;;18.99;93.23;94496.56;4970432;28;20333;-66
2023/06/17 11:27:58;;;;;;;4.30;4.00;;;;;;;19.02;93.15;94494.56;4971383;28;20204;-65
2023/06/17 11:30:26;;;;;;;6.47;4.15;;;;;;;18.95;94.08;94492.56;4977125;28;20216;-63
2023/06/17 11:32:53;;;;;;;4.95;4.55;;;;;;;19.07;93.57;94490.81;4976984;28;20208;-65
2023/06/17 11:35:21;;;;;;;4.72;4.38;;;;;;;19.32;92.65;94493.16;4975562;28;20258;-69